sensor_id;sensor_type;location;lat;lon;timestamp;temperature;humidity
20740;DHT22;10530;49.968;19.844;2023-04-15T00:03:02;10.30;99.90
20740;DHT22;10530;49.968;19.844;2023-04-15T00:08:06;10.20;99.90
20740;DHT22;10530;49.968;19.844;2023-04-15T00:13:09;10.10;99.90
20740;DHT22;10530;49.968;19.844;2023-04-15T00:18:12;10.10;99.90
20740;DHT22;10530;49.968;19.844;2023-04-15T00:23:15;9.90;99.90
20740;DHT22;10530;49.968;19.844;2023-04-15T00:28:18;9.90;99.90
20740;DHT22;10530;49.968;19.844;2023-04-15T00:33:21;9.80;99.90
20740;DHT22;10530;49.968;19.844;2023-04-15T00:38:24;9.50;99.90
20740;DHT22;10530;49.968;19.844;2023-04-15T00:43:27;9.40;99.90
20740;DHT22;10530;49.968;19.844;2023-04-15T00:48:29;9.30;99.90
20740;DHT22;10530;49.968;19.844;2023-04-15T00:53:33;9.10;99.90
20740;DHT22;10530;49.968;19.844;2023-04-15T00:58:36;9.30;99.90
20740;DHT22;10530;49.968;19.844;2023-04-15T01:03:39;9.40;99.90
20740;DHT22;10530;49.968;19.844;2023-04-15T01:08:42;9.20;99.90
20740;DHT22;10530;49.968;19.844;2023-04-15T01:13:45;9.10;99.90
20740;DHT22;10530;49.968;19.844;2023-04-15T01:18:49;9.30;99.90
20740;DHT22;10530;49.968;19.844;2023-04-15T01:23:54;9.60;99.90
20740;DHT22;10530;49.968;19.844;2023-04-15T01:28:58;9.70;99.90
20740;DHT22;10530;49.968;19.844;2023-04-15T01:34:02;9.50;99.90
20740;DHT22;10530;49.968;19.844;2023-04-15T01:39:23;9.40;99.90
20740;DHT22;10530;49.968;19.844;2023-04-15T01:44:25;9.20;99.90
20740;DHT22;10530;49.968;19.844;2023-04-15T01:49:30;9.30;99.90
20740;DHT22;10530;49.968;19.844;2023-04-15T01:54:36;9.00;99.90
20740;DHT22;10530;49.968;19.844;2023-04-15T01:59:40;8.90;99.90
20740;DHT22;10530;49.968;19.844;2023-04-15T02:04:44;8.70;99.90
20740;DHT22;10530;49.968;19.844;2023-04-15T02:09:48;8.80;99.90
20740;DHT22;10530;49.968;19.844;2023-04-15T02:14:52;9.00;99.90
20740;DHT22;10530;49.968;19.844;2023-04-15T02:19:58;8.80;99.90
20740;DHT22;10530;49.968;19.844;2023-04-15T02:25:02;8.60;99.90
20740;DHT22;10530;49.968;19.844;2023-04-15T02:30:07;8.50;99.90
20740;DHT22;10530;49.968;19.844;2023-04-15T02:35:11;8.40;99.90
20740;DHT22;10530;49.968;19.844;2023-04-15T02:40:16;8.50;99.90
20740;DHT22;10530;49.968;19.844;2023-04-15T02:45:21;8.20;99.90
20740;DHT22;10530;49.968;19.844;2023-04-15T02:50:28;8.30;99.90
20740;DHT22;10530;49.968;19.844;2023-04-15T02:55:32;8.40;99.90
20740;DHT22;10530;49.968;19.844;2023-04-15T03:00:36;8.20;99.90
20740;DHT22;10530;49.968;19.844;2023-04-15T03:05:40;7.90;99.90
20740;DHT22;10530;49.968;19.844;2023-04-15T03:10:44;7.80;99.90
20740;DHT22;10530;49.968;19.844;2023-04-15T03:15:49;7.80;99.90
20740;DHT22;10530;49.968;19.844;2023-04-15T03:20:53;7.70;99.90
20740;DHT22;10530;49.968;19.844;2023-04-15T03:26:01;7.70;99.90
20740;DHT22;10530;49.968;19.844;2023-04-15T03:31:06;7.70;99.90
20740;DHT22;10530;49.968;19.844;2023-04-15T03:36:10;7.70;99.90
20740;DHT22;10530;49.968;19.844;2023-04-15T03:41:14;7.50;99.90
20740;DHT22;10530;49.968;19.844;2023-04-15T03:46:18;7.50;99.90
20740;DHT22;10530;49.968;19.844;2023-04-15T03:51:22;7.50;99.90
20740;DHT22;10530;49.968;19.844;2023-04-15T03:56:26;7.50;99.90
20740;DHT22;10530;49.968;19.844;2023-04-15T04:01:30;7.40;99.90
20740;DHT22;10530;49.968;19.844;2023-04-15T04:06:34;7.20;99.90
20740;DHT22;10530;49.968;19.844;2023-04-15T04:11:38;7.10;99.90
20740;DHT22;10530;49.968;19.844;2023-04-15T04:16:42;7.20;99.90
20740;DHT22;10530;49.968;19.844;2023-04-15T04:21:47;7.10;99.90
20740;DHT22;10530;49.968;19.844;2023-04-15T04:26:51;6.90;99.90
20740;DHT22;10530;49.968;19.844;2023-04-15T04:31:55;6.90;99.90
20740;DHT22;10530;49.968;19.844;2023-04-15T04:36:59;6.90;99.90
20740;DHT22;10530;49.968;19.844;2023-04-15T04:42:03;7.10;99.90
20740;DHT22;10530;49.968;19.844;2023-04-15T04:47:07;7.20;99.90
20740;DHT22;10530;49.968;19.844;2023-04-15T04:52:11;7.30;99.90
20740;DHT22;10530;49.968;19.844;2023-04-15T04:57:15;7.50;99.90
20740;DHT22;10530;49.968;19.844;2023-04-15T05:02:20;7.60;99.90
20740;DHT22;10530;49.968;19.844;2023-04-15T05:07:24;7.80;99.90
20740;DHT22;10530;49.968;19.844;2023-04-15T05:12:28;8.10;99.90
20740;DHT22;10530;49.968;19.844;2023-04-15T05:17:32;8.40;99.90
20740;DHT22;10530;49.968;19.844;2023-04-15T05:22:38;8.60;99.90
20740;DHT22;10530;49.968;19.844;2023-04-15T05:27:42;8.70;99.90
20740;DHT22;10530;49.968;19.844;2023-04-15T05:32:46;9.00;99.90
20740;DHT22;10530;49.968;19.844;2023-04-15T05:37:50;9.30;99.90
20740;DHT22;10530;49.968;19.844;2023-04-15T05:42:54;9.80;99.90
20740;DHT22;10530;49.968;19.844;2023-04-15T05:47:58;10.50;99.90
20740;DHT22;10530;49.968;19.844;2023-04-15T05:53:02;10.60;99.90
20740;DHT22;10530;49.968;19.844;2023-04-15T05:58:06;10.90;99.90
20740;DHT22;10530;49.968;19.844;2023-04-15T06:03:11;11.40;99.90
20740;DHT22;10530;49.968;19.844;2023-04-15T06:08:15;11.50;99.90
20740;DHT22;10530;49.968;19.844;2023-04-15T06:13:19;11.80;99.90
20740;DHT22;10530;49.968;19.844;2023-04-15T06:18:24;12.00;99.90
20740;DHT22;10530;49.968;19.844;2023-04-15T06:23:28;12.20;99.90
20740;DHT22;10530;49.968;19.844;2023-04-15T06:28:32;12.50;99.90
20740;DHT22;10530;49.968;19.844;2023-04-15T06:33:36;12.50;99.90
20740;DHT22;10530;49.968;19.844;2023-04-15T06:38:40;12.60;99.90
20740;DHT22;10530;49.968;19.844;2023-04-15T06:43:46;12.50;99.90
20740;DHT22;10530;49.968;19.844;2023-04-15T06:48:50;12.70;99.90
20740;DHT22;10530;49.968;19.844;2023-04-15T06:53:55;13.00;99.90
20740;DHT22;10530;49.968;19.844;2023-04-15T06:58:59;13.10;99.90
20740;DHT22;10530;49.968;19.844;2023-04-15T07:04:03;13.20;99.90
20740;DHT22;10530;49.968;19.844;2023-04-15T07:09:08;13.60;99.90
20740;DHT22;10530;49.968;19.844;2023-04-15T07:14:12;13.70;99.90
20740;DHT22;10530;49.968;19.844;2023-04-15T07:19:16;13.80;99.90
20740;DHT22;10530;49.968;19.844;2023-04-15T07:24:20;13.70;99.90
20740;DHT22;10530;49.968;19.844;2023-04-15T07:29:26;13.60;99.90
20740;DHT22;10530;49.968;19.844;2023-04-15T07:34:30;13.70;99.90
20740;DHT22;10530;49.968;19.844;2023-04-15T07:39:35;13.90;99.90
20740;DHT22;10530;49.968;19.844;2023-04-15T07:44:39;14.20;99.80
20740;DHT22;10530;49.968;19.844;2023-04-15T07:49:43;14.20;94.90
20740;DHT22;10530;49.968;19.844;2023-04-15T07:54:48;14.40;94.90
20740;DHT22;10530;49.968;19.844;2023-04-15T07:59:51;14.30;94.40
20740;DHT22;10530;49.968;19.844;2023-04-15T08:04:55;13.90;92.90
20740;DHT22;10530;49.968;19.844;2023-04-15T08:10:00;14.30;90.50
20740;DHT22;10530;49.968;19.844;2023-04-15T08:15:05;14.70;82.00
20740;DHT22;10530;49.968;19.844;2023-04-15T08:20:10;14.70;78.00
20740;DHT22;10530;49.968;19.844;2023-04-15T08:25:16;15.40;81.20
20740;DHT22;10530;49.968;19.844;2023-04-15T08:30:20;15.60;76.60
20740;DHT22;10530;49.968;19.844;2023-04-15T08:35:24;15.90;78.40
20740;DHT22;10530;49.968;19.844;2023-04-15T08:40:43;16.20;70.40
20740;DHT22;10530;49.968;19.844;2023-04-15T08:45:49;16.40;70.90
20740;DHT22;10530;49.968;19.844;2023-04-15T08:50:54;17.00;59.60
20740;DHT22;10530;49.968;19.844;2023-04-15T08:56:02;17.70;59.80
20740;DHT22;10530;49.968;19.844;2023-04-15T09:01:07;18.70;54.00
20740;DHT22;10530;49.968;19.844;2023-04-15T09:06:12;20.00;42.30
20740;DHT22;10530;49.968;19.844;2023-04-15T09:11:18;18.00;48.60
20740;DHT22;10530;49.968;19.844;2023-04-15T09:16:22;17.90;52.80
20740;DHT22;10530;49.968;19.844;2023-04-15T09:21:27;18.60;40.10
20740;DHT22;10530;49.968;19.844;2023-04-15T09:26:34;17.70;42.30
20740;DHT22;10530;49.968;19.844;2023-04-15T09:31:39;18.10;43.50
20740;DHT22;10530;49.968;19.844;2023-04-15T09:42:06;17.70;43.10
20740;DHT22;10530;49.968;19.844;2023-04-15T09:47:27;17.70;39.80
20740;DHT22;10530;49.968;19.844;2023-04-15T09:52:31;18.80;32.40
20740;DHT22;10530;49.968;19.844;2023-04-15T09:57:36;18.00;37.40
20740;DHT22;10530;49.968;19.844;2023-04-15T10:02:41;19.10;29.00
20740;DHT22;10530;49.968;19.844;2023-04-15T10:07:45;19.70;31.00
20740;DHT22;10530;49.968;19.844;2023-04-15T10:12:51;18.90;36.20
20740;DHT22;10530;49.968;19.844;2023-04-15T10:17:59;17.90;40.40
20740;DHT22;10530;49.968;19.844;2023-04-15T10:23:04;17.90;40.80
20740;DHT22;10530;49.968;19.844;2023-04-15T10:28:13;17.50;37.80
20740;DHT22;10530;49.968;19.844;2023-04-15T10:33:23;16.20;41.10
20740;DHT22;10530;49.968;19.844;2023-04-15T10:38:35;15.80;40.60
20740;DHT22;10530;49.968;19.844;2023-04-15T10:43:55;15.60;42.20
20740;DHT22;10530;49.968;19.844;2023-04-15T10:49:15;15.60;43.80
20740;DHT22;10530;49.968;19.844;2023-04-15T10:59:36;15.60;43.30
20740;DHT22;10530;49.968;19.844;2023-04-15T11:04:57;15.90;44.90
20740;DHT22;10530;49.968;19.844;2023-04-15T11:10:01;16.00;43.10
20740;DHT22;10530;49.968;19.844;2023-04-15T11:20:39;18.20;37.40
20740;DHT22;10530;49.968;19.844;2023-04-15T11:25:44;18.30;30.30
20740;DHT22;10530;49.968;19.844;2023-04-15T11:30:48;18.60;31.60
20740;DHT22;10530;49.968;19.844;2023-04-15T11:35:53;18.40;29.90
20740;DHT22;10530;49.968;19.844;2023-04-15T11:40:57;18.60;31.80
20740;DHT22;10530;49.968;19.844;2023-04-15T11:46:02;18.30;33.20
20740;DHT22;10530;49.968;19.844;2023-04-15T11:51:07;17.50;32.10
20740;DHT22;10530;49.968;19.844;2023-04-15T11:56:15;17.40;35.20
20740;DHT22;10530;49.968;19.844;2023-04-15T12:01:19;17.90;31.90
20740;DHT22;10530;49.968;19.844;2023-04-15T12:06:22;18.30;31.90
20740;DHT22;10530;49.968;19.844;2023-04-15T12:11:27;17.20;33.90
20740;DHT22;10530;49.968;19.844;2023-04-15T12:16:41;16.80;38.20
20740;DHT22;10530;49.968;19.844;2023-04-15T12:21:56;16.80;36.30
20740;DHT22;10530;49.968;19.844;2023-04-15T12:27:11;17.70;35.40
20740;DHT22;10530;49.968;19.844;2023-04-15T12:32:16;17.50;32.40
20740;DHT22;10530;49.968;19.844;2023-04-15T12:37:21;17.10;32.50
20740;DHT22;10530;49.968;19.844;2023-04-15T12:42:24;17.50;37.80
20740;DHT22;10530;49.968;19.844;2023-04-15T12:47:27;17.80;31.60
20740;DHT22;10530;49.968;19.844;2023-04-15T12:52:29;17.50;31.20
20740;DHT22;10530;49.968;19.844;2023-04-15T12:57:32;18.20;32.40
20740;DHT22;10530;49.968;19.844;2023-04-15T13:02:35;17.80;31.10
20740;DHT22;10530;49.968;19.844;2023-04-15T13:07:38;18.00;33.00
20740;DHT22;10530;49.968;19.844;2023-04-15T13:12:41;18.90;32.30
20740;DHT22;10530;49.968;19.844;2023-04-15T13:17:44;18.40;27.80
20740;DHT22;10530;49.968;19.844;2023-04-15T13:22:47;20.10;28.60
20740;DHT22;10530;49.968;19.844;2023-04-15T13:27:50;18.60;25.40
20740;DHT22;10530;49.968;19.844;2023-04-15T13:32:53;18.40;27.50
20740;DHT22;10530;49.968;19.844;2023-04-15T13:37:55;18.70;27.30
20740;DHT22;10530;49.968;19.844;2023-04-15T13:42:58;18.20;26.00
20740;DHT22;10530;49.968;19.844;2023-04-15T13:48:01;19.70;26.50
20740;DHT22;10530;49.968;19.844;2023-04-15T13:53:04;19.50;27.80
20740;DHT22;10530;49.968;19.844;2023-04-15T13:58:08;19.30;27.30
20740;DHT22;10530;49.968;19.844;2023-04-15T14:03:11;20.10;27.60
20740;DHT22;10530;49.968;19.844;2023-04-15T14:08:14;20.40;25.70
20740;DHT22;10530;49.968;19.844;2023-04-15T14:13:17;18.50;25.20
20740;DHT22;10530;49.968;19.844;2023-04-15T14:18:21;18.90;26.20
20740;DHT22;10530;49.968;19.844;2023-04-15T14:23:23;19.90;26.30
20740;DHT22;10530;49.968;19.844;2023-04-15T14:28:26;20.10;25.00
20740;DHT22;10530;49.968;19.844;2023-04-15T14:33:29;19.70;26.00
20740;DHT22;10530;49.968;19.844;2023-04-15T14:38:35;19.70;24.90
20740;DHT22;10530;49.968;19.844;2023-04-15T14:43:40;19.90;26.20
20740;DHT22;10530;49.968;19.844;2023-04-15T14:48:42;19.70;24.80
20740;DHT22;10530;49.968;19.844;2023-04-15T14:53:45;18.70;25.50
20740;DHT22;10530;49.968;19.844;2023-04-15T14:58:48;18.80;25.60
20740;DHT22;10530;49.968;19.844;2023-04-15T15:03:52;17.00;29.60
20740;DHT22;10530;49.968;19.844;2023-04-15T15:08:54;16.50;31.60
20740;DHT22;10530;49.968;19.844;2023-04-15T15:13:57;15.50;36.00
20740;DHT22;10530;49.968;19.844;2023-04-15T15:19:00;15.20;35.80
20740;DHT22;10530;49.968;19.844;2023-04-15T15:24:03;15.10;38.60
20740;DHT22;10530;49.968;19.844;2023-04-15T15:29:06;15.10;37.90
20740;DHT22;10530;49.968;19.844;2023-04-15T15:34:09;15.10;40.30
20740;DHT22;10530;49.968;19.844;2023-04-15T15:39:12;15.20;40.60
20740;DHT22;10530;49.968;19.844;2023-04-15T15:44:15;15.10;42.50
20740;DHT22;10530;49.968;19.844;2023-04-15T15:49:17;13.70;47.20
20740;DHT22;10530;49.968;19.844;2023-04-15T15:54:21;12.80;57.50
20740;DHT22;10530;49.968;19.844;2023-04-15T15:59:24;12.50;68.40
20740;DHT22;10530;49.968;19.844;2023-04-15T16:04:27;12.40;76.00
20740;DHT22;10530;49.968;19.844;2023-04-15T16:09:30;12.40;85.00
20740;DHT22;10530;49.968;19.844;2023-04-15T16:14:33;12.30;87.30
20740;DHT22;10530;49.968;19.844;2023-04-15T16:19:36;12.40;94.30
20740;DHT22;10530;49.968;19.844;2023-04-15T16:24:39;12.00;95.30
20740;DHT22;10530;49.968;19.844;2023-04-15T16:29:42;11.90;99.90
20740;DHT22;10530;49.968;19.844;2023-04-15T16:34:44;12.00;99.90
20740;DHT22;10530;49.968;19.844;2023-04-15T16:39:47;11.80;99.90
20740;DHT22;10530;49.968;19.844;2023-04-15T16:44:50;11.30;99.90
20740;DHT22;10530;49.968;19.844;2023-04-15T16:49:53;11.20;99.90
20740;DHT22;10530;49.968;19.844;2023-04-15T16:54:55;11.10;99.90
20740;DHT22;10530;49.968;19.844;2023-04-15T16:59:58;10.50;99.90
20740;DHT22;10530;49.968;19.844;2023-04-15T17:05:02;10.30;99.90
20740;DHT22;10530;49.968;19.844;2023-04-15T17:10:05;10.30;99.90
20740;DHT22;10530;49.968;19.844;2023-04-15T17:15:09;10.20;99.90
20740;DHT22;10530;49.968;19.844;2023-04-15T17:20:16;10.10;99.90
20740;DHT22;10530;49.968;19.844;2023-04-15T17:25:20;10.00;99.90
20740;DHT22;10530;49.968;19.844;2023-04-15T17:30:25;9.70;99.90
20740;DHT22;10530;49.968;19.844;2023-04-15T17:35:48;9.40;99.90
20740;DHT22;10530;49.968;19.844;2023-04-15T17:41:11;9.40;99.90
20740;DHT22;10530;49.968;19.844;2023-04-15T17:46:34;9.30;99.90
20740;DHT22;10530;49.968;19.844;2023-04-15T17:51:57;9.10;99.90
20740;DHT22;10530;49.968;19.844;2023-04-15T17:57:19;9.00;99.90
20740;DHT22;10530;49.968;19.844;2023-04-15T18:02:42;8.90;99.90
20740;DHT22;10530;49.968;19.844;2023-04-15T18:08:05;8.80;99.90
20740;DHT22;10530;49.968;19.844;2023-04-15T18:13:28;8.70;99.90
20740;DHT22;10530;49.968;19.844;2023-04-15T18:18:51;8.60;99.90
20740;DHT22;10530;49.968;19.844;2023-04-15T18:23:54;8.50;99.90
20740;DHT22;10530;49.968;19.844;2023-04-15T18:28:57;8.50;99.90
20740;DHT22;10530;49.968;19.844;2023-04-15T18:34:00;8.30;99.90
20740;DHT22;10530;49.968;19.844;2023-04-15T18:39:06;8.30;99.90
20740;DHT22;10530;49.968;19.844;2023-04-15T18:44:09;8.00;99.90
20740;DHT22;10530;49.968;19.844;2023-04-15T18:49:12;7.70;99.90
20740;DHT22;10530;49.968;19.844;2023-04-15T18:54:15;7.60;99.90
20740;DHT22;10530;49.968;19.844;2023-04-15T18:59:18;7.70;99.90
20740;DHT22;10530;49.968;19.844;2023-04-15T19:04:32;7.60;99.90
20740;DHT22;10530;49.968;19.844;2023-04-15T19:09:35;7.50;99.90
20740;DHT22;10530;49.968;19.844;2023-04-15T19:14:38;7.30;99.90
20740;DHT22;10530;49.968;19.844;2023-04-15T19:19:40;7.40;99.90
20740;DHT22;10530;49.968;19.844;2023-04-15T19:24:44;7.30;99.90
20740;DHT22;10530;49.968;19.844;2023-04-15T19:29:47;7.00;99.90
20740;DHT22;10530;49.968;19.844;2023-04-15T19:34:50;6.90;99.90
20740;DHT22;10530;49.968;19.844;2023-04-15T19:39:53;6.60;99.90
20740;DHT22;10530;49.968;19.844;2023-04-15T19:44:57;6.60;99.90
20740;DHT22;10530;49.968;19.844;2023-04-15T19:50:00;6.70;99.90
20740;DHT22;10530;49.968;19.844;2023-04-15T19:55:03;6.50;99.90
20740;DHT22;10530;49.968;19.844;2023-04-15T20:00:07;6.40;99.90
20740;DHT22;10530;49.968;19.844;2023-04-15T20:05:10;6.20;99.90
20740;DHT22;10530;49.968;19.844;2023-04-15T20:10:13;6.00;99.90
20740;DHT22;10530;49.968;19.844;2023-04-15T20:15:16;5.90;99.90
20740;DHT22;10530;49.968;19.844;2023-04-15T20:20:20;5.90;99.90
20740;DHT22;10530;49.968;19.844;2023-04-15T20:25:23;6.00;99.90
20740;DHT22;10530;49.968;19.844;2023-04-15T20:30:26;6.00;99.90
20740;DHT22;10530;49.968;19.844;2023-04-15T20:35:30;6.00;99.90
20740;DHT22;10530;49.968;19.844;2023-04-15T20:40:33;5.90;99.90
20740;DHT22;10530;49.968;19.844;2023-04-15T20:45:37;6.00;99.90
20740;DHT22;10530;49.968;19.844;2023-04-15T20:50:40;6.00;99.90
20740;DHT22;10530;49.968;19.844;2023-04-15T20:55:43;6.00;99.90
20740;DHT22;10530;49.968;19.844;2023-04-15T21:00:46;5.90;99.90
20740;DHT22;10530;49.968;19.844;2023-04-15T21:05:49;5.90;99.90
20740;DHT22;10530;49.968;19.844;2023-04-15T21:10:52;6.00;99.90
20740;DHT22;10530;49.968;19.844;2023-04-15T21:15:54;6.00;99.90
20740;DHT22;10530;49.968;19.844;2023-04-15T21:20:59;6.00;99.90
20740;DHT22;10530;49.968;19.844;2023-04-15T21:26:02;6.00;99.90
20740;DHT22;10530;49.968;19.844;2023-04-15T21:31:05;6.00;99.90
20740;DHT22;10530;49.968;19.844;2023-04-15T21:36:08;5.90;99.90
20740;DHT22;10530;49.968;19.844;2023-04-15T21:41:11;5.90;99.90
20740;DHT22;10530;49.968;19.844;2023-04-15T21:46:14;5.70;99.90
20740;DHT22;10530;49.968;19.844;2023-04-15T21:51:24;5.70;99.90
20740;DHT22;10530;49.968;19.844;2023-04-15T21:56:28;5.70;99.90
20740;DHT22;10530;49.968;19.844;2023-04-15T22:01:30;5.70;99.90
20740;DHT22;10530;49.968;19.844;2023-04-15T22:06:33;5.70;99.90
20740;DHT22;10530;49.968;19.844;2023-04-15T22:11:37;5.70;99.90
20740;DHT22;10530;49.968;19.844;2023-04-15T22:16:40;5.60;99.90
20740;DHT22;10530;49.968;19.844;2023-04-15T22:21:43;5.80;99.90
20740;DHT22;10530;49.968;19.844;2023-04-15T22:26:46;5.70;99.90
20740;DHT22;10530;49.968;19.844;2023-04-15T22:31:48;5.50;99.90
20740;DHT22;10530;49.968;19.844;2023-04-15T22:36:52;5.50;99.90
20740;DHT22;10530;49.968;19.844;2023-04-15T22:41:55;5.40;99.90
20740;DHT22;10530;49.968;19.844;2023-04-15T22:46:58;5.60;99.90
20740;DHT22;10530;49.968;19.844;2023-04-15T22:52:01;5.30;99.90
20740;DHT22;10530;49.968;19.844;2023-04-15T22:57:03;5.40;99.90
20740;DHT22;10530;49.968;19.844;2023-04-15T23:02:06;5.30;99.90
20740;DHT22;10530;49.968;19.844;2023-04-15T23:07:09;5.20;99.90
20740;DHT22;10530;49.968;19.844;2023-04-15T23:12:13;5.20;99.90
20740;DHT22;10530;49.968;19.844;2023-04-15T23:17:15;5.20;99.90
20740;DHT22;10530;49.968;19.844;2023-04-15T23:22:18;5.00;99.90
20740;DHT22;10530;49.968;19.844;2023-04-15T23:27:21;5.00;99.90
20740;DHT22;10530;49.968;19.844;2023-04-15T23:32:24;5.10;99.90
20740;DHT22;10530;49.968;19.844;2023-04-15T23:37:29;5.20;99.90
20740;DHT22;10530;49.968;19.844;2023-04-15T23:42:33;5.20;99.90
20740;DHT22;10530;49.968;19.844;2023-04-15T23:47:36;5.10;99.90
20740;DHT22;10530;49.968;19.844;2023-04-15T23:52:39;5.00;99.90
20740;DHT22;10530;49.968;19.844;2023-04-15T23:57:42;5.00;99.90
